Time;durP1;ratioP1;P1;durP2;ratioP2;P2;SDS_P1;SDS_P2;PMS_P1;PMS_P2;Temp;Humidity;BMP_temperature;BMP_pressure;BME280_temperature;BME280_humidity;BME280_pressure;Samples;Min_cycle;Max_cycle;Signal;HPM_P1;HPM_P2
2022/03/06 00:03:30;;;;;;;7.75;5.78;;;17.90;52.90;;;;;;10414160;28;20671;-56
2022/03/06 00:08:31;;;;;;;6.93;5.22;;;17.80;53.00;;;;;;10431172;28;20384;-57
2022/03/06 00:13:33;;;;;;;7.05;6.13;;;17.80;53.00;;;;;;10423610;28;20061;-57
2022/03/06 00:18:36;;;;;;;7.47;5.25;;;17.80;52.90;;;;;;10430422;28;20021;-56
2022/03/06 00:23:37;;;;;;;7.10;5.18;;;17.80;52.90;;;;;;10413753;28;20025;-56
2022/03/06 00:28:38;;;;;;;6.15;4.90;;;17.80;53.00;;;;;;10413504;28;20543;-57
2022/03/06 00:33:39;;;;;;;7.03;5.82;;;17.80;53.00;;;;;;10398985;28;20029;-56
2022/03/06 00:38:40;;;;;;;6.72;5.15;;;17.80;53.00;;;;;;10412964;28;20120;-57
2022/03/06 00:43:41;;;;;;;6.63;5.10;;;17.80;52.80;;;;;;10412837;28;20549;-57
2022/03/06 00:48:42;;;;;;;6.38;4.60;;;17.80;52.70;;;;;;10413096;28;20037;-57
2022/03/06 00:53:43;;;;;;;5.70;4.80;;;17.90;52.50;;;;;;10412509;28;20116;-57
2022/03/06 00:58:44;;;;;;;5.57;4.70;;;17.90;52.40;;;;;;10412468;28;20044;-57
2022/03/06 01:03:44;;;;;;;6.10;4.15;;;17.90;52.60;;;;;;10412819;28;20113;-56
2022/03/06 01:08:45;;;;;;;6.10;4.45;;;17.80;52.60;;;;;;10412207;28;20025;-56
2022/03/06 01:13:46;;;;;;;5.72;4.57;;;17.80;52.70;;;;;;10411872;28;20116;-57
2022/03/06 01:18:47;;;;;;;5.90;4.72;;;17.80;52.70;;;;;;10411816;28;20144;-57
2022/03/06 01:23:48;;;;;;;5.40;3.90;;;17.80;52.70;;;;;;10412720;28;20401;-56
2022/03/06 01:28:48;;;;;;;5.95;4.45;;;17.70;52.60;;;;;;10411473;28;20073;-58
2022/03/06 01:33:49;;;;;;;7.10;4.72;;;18.00;52.20;;;;;;10412428;28;20125;-57
2022/03/06 01:38:50;;;;;;;5.60;4.40;;;17.90;52.10;;;;;;10427561;28;20112;-56
2022/03/06 01:43:50;;;;;;;6.72;5.03;;;18.00;52.00;;;;;;10411124;28;20504;-57
2022/03/06 01:48:51;;;;;;;5.75;4.45;;;18.00;52.10;;;;;;10428177;28;20037;-56
2022/03/06 01:53:52;;;;;;;6.03;4.18;;;17.90;52.20;;;;;;10412113;28;20523;-57
2022/03/06 01:58:53;;;;;;;6.53;4.43;;;17.90;52.20;;;;;;10423820;28;20075;-56
2022/03/06 02:03:54;;;;;;;6.53;4.68;;;17.90;52.30;;;;;;10401118;28;20033;-57
2022/03/06 02:08:55;;;;;;;5.80;4.60;;;17.90;52.20;;;;;;10410901;28;20490;-57
2022/03/06 02:13:56;;;;;;;4.55;3.97;;;17.80;52.20;;;;;;10427402;28;20042;-57
2022/03/06 02:18:56;;;;;;;5.38;4.35;;;17.90;52.10;;;;;;10410880;28;20061;-57
2022/03/06 02:23:59;;;;;;;5.28;4.47;;;17.80;52.20;;;;;;10410721;28;20485;-57
2022/03/06 02:29:00;;;;;;;8.65;4.78;;;17.80;52.10;;;;;;10425177;28;20033;-57
2022/03/06 02:34:00;;;;;;;5.38;4.03;;;17.90;51.90;;;;;;10410318;28;20179;-56
2022/03/06 02:39:01;;;;;;;5.88;4.25;;;17.90;51.70;;;;;;10417034;28;20137;-57
2022/03/06 02:44:02;;;;;;;5.68;3.38;;;18.00;51.60;;;;;;10417643;28;20029;-56
2022/03/06 02:49:02;;;;;;;6.10;4.00;;;18.00;51.70;;;;;;10416978;28;20369;-56
2022/03/06 02:54:03;;;;;;;5.00;3.97;;;18.00;51.90;;;;;;10407110;28;20030;-57
2022/03/06 02:59:04;;;;;;;4.32;3.78;;;17.90;51.80;;;;;;10416884;28;20034;-57
2022/03/06 03:04:05;;;;;;;5.78;4.10;;;17.80;51.80;;;;;;10406586;28;20040;-56
2022/03/06 03:09:07;;;;;;;4.78;3.72;;;17.90;51.80;;;;;;10416575;28;20049;-57
2022/03/06 03:14:08;;;;;;;5.03;4.15;;;17.80;51.90;;;;;;10417498;28;20041;-57
2022/03/06 03:19:09;;;;;;;4.90;3.55;;;17.80;51.70;;;;;;10417557;28;20030;-57
2022/03/06 03:24:09;;;;;;;4.57;3.65;;;17.80;51.90;;;;;;10416125;28;20038;-56
2022/03/06 03:29:10;;;;;;;5.25;4.13;;;17.80;51.70;;;;;;10418870;28;20044;-57
2022/03/06 03:34:11;;;;;;;4.35;3.50;;;17.90;51.50;;;;;;10416947;28;20064;-58
2022/03/06 03:39:12;;;;;;;4.25;3.22;;;18.00;51.10;;;;;;10416113;28;20072;-58
2022/03/06 03:44:12;;;;;;;4.38;3.40;;;18.00;51.30;;;;;;10415315;28;20040;-57
2022/03/06 03:49:16;;;;;;;4.95;3.88;;;18.00;51.20;;;;;;10415143;28;20056;-57
2022/03/06 03:54:17;;;;;;;4.93;3.63;;;17.90;51.40;;;;;;10430874;28;20113;-57
2022/03/06 03:59:18;;;;;;;4.47;3.20;;;17.90;51.30;;;;;;10433099;28;20100;-57
2022/03/06 04:04:19;;;;;;;4.90;3.40;;;17.90;51.40;;;;;;10415599;28;20029;-57
2022/03/06 04:09:20;;;;;;;4.40;3.50;;;17.90;51.20;;;;;;10419015;28;20033;-57
2022/03/06 04:14:20;;;;;;;4.38;3.50;;;17.90;51.00;;;;;;10413804;28;20120;-57
2022/03/06 04:19:21;;;;;;;4.35;3.28;;;17.90;51.00;;;;;;10414960;28;20067;-57
2022/03/06 04:24:22;;;;;;;3.65;2.92;;;17.90;50.90;;;;;;10415021;28;20542;-56
2022/03/06 04:29:23;;;;;;;6.43;4.13;;;17.90;50.90;;;;;;10414521;28;20065;-56
2022/03/06 04:34:23;;;;;;;3.83;3.08;;;17.90;51.00;;;;;;10412854;28;20482;-58
2022/03/06 04:39:24;;;;;;;4.38;3.38;;;17.90;51.00;;;;;;10412757;28;20039;-56
2022/03/06 04:44:25;;;;;;;4.05;2.88;;;17.90;51.00;;;;;;10412553;28;20468;-57
2022/03/06 04:49:25;;;;;;;3.67;3.20;;;17.90;50.80;;;;;;10415758;28;20069;-56
2022/03/06 04:54:26;;;;;;;4.15;3.20;;;17.90;51.00;;;;;;10413794;28;20116;-56
2022/03/06 04:59:27;;;;;;;4.72;3.67;;;17.90;50.90;;;;;;10430005;28;20117;-57
2022/03/06 05:04:28;;;;;;;3.63;2.83;;;17.90;51.00;;;;;;10415870;28;20037;-56
2022/03/06 05:09:29;;;;;;;5.00;3.13;;;17.90;50.90;;;;;;10411668;28;20382;-57
2022/03/06 05:14:30;;;;;;;3.78;2.45;;;17.80;51.10;;;;;;10415253;28;20098;-56
2022/03/06 05:19:30;;;;;;;3.75;2.72;;;17.90;50.90;;;;;;10411384;28;20113;-57
2022/03/06 05:24:31;;;;;;;4.10;3.08;;;17.90;51.10;;;;;;10395118;28;20068;-56
2022/03/06 05:29:32;;;;;;;4.85;3.30;;;17.90;51.00;;;;;;10411062;28;20061;-58
2022/03/06 05:34:32;;;;;;;3.78;2.65;;;17.90;51.10;;;;;;10411439;28;20033;-57
2022/03/06 05:39:33;;;;;;;4.25;3.03;;;17.90;50.90;;;;;;10411307;28;20113;-57
2022/03/06 05:44:34;;;;;;;3.35;2.50;;;17.90;51.00;;;;;;10411406;28;20390;-57
2022/03/06 05:49:35;;;;;;;3.88;2.72;;;17.90;50.90;;;;;;10410740;28;20118;-56
2022/03/06 05:54:36;;;;;;;4.10;2.85;;;17.90;50.80;;;;;;10411284;28;20052;-56
2022/03/06 05:59:36;;;;;;;4.43;3.20;;;17.90;50.70;;;;;;10435393;28;20025;-56
2022/03/06 06:04:37;;;;;;;3.92;2.97;;;18.00;50.60;;;;;;10408526;28;20029;-56
2022/03/06 06:09:38;;;;;;;3.47;2.88;;;17.90;50.60;;;;;;10410838;28;20489;-57
2022/03/06 06:14:38;;;;;;;5.00;3.08;;;17.90;50.50;;;;;;10418307;28;20084;-59
2022/03/06 06:19:39;;;;;;;9.93;2.92;;;17.90;50.90;;;;;;10417826;28;20505;-58
2022/03/06 06:24:40;;;;;;;9.23;3.20;;;17.90;51.10;;;;;;10419585;28;20037;-57
2022/03/06 06:29:41;;;;;;;8.52;3.33;;;18.20;51.60;;;;;;10417946;28;20032;-57
2022/03/06 06:34:42;;;;;;;5.15;3.13;;;18.30;51.90;;;;;;10401165;28;20088;-58
2022/03/06 06:39:42;;;;;;;6.63;3.85;;;18.50;51.70;;;;;;10418792;28;20076;-58
2022/03/06 06:44:43;;;;;;;6.65;4.13;;;18.60;51.60;;;;;;10433946;28;20064;-58
2022/03/06 06:49:44;;;;;;;5.20;2.95;;;18.20;52.50;;;;;;10423688;28;20448;-57
2022/03/06 06:54:45;;;;;;;6.18;3.17;;;18.10;53.20;;;;;;10419070;28;20470;-59
2022/03/06 06:59:45;;;;;;;7.05;2.90;;;17.90;54.60;;;;;;10426339;28;20029;-58
2022/03/06 07:04:46;;;;;;;7.30;2.80;;;17.70;54.10;;;;;;10417507;28;20112;-58
2022/03/06 07:09:47;;;;;;;10.25;3.38;;;17.60;54.60;;;;;;10417520;28;20090;-57
2022/03/06 07:14:47;;;;;;;8.38;3.33;;;17.60;55.40;;;;;;10417351;28;20109;-59
2022/03/06 07:19:48;;;;;;;11.38;3.22;;;17.60;56.10;;;;;;10417194;28;20116;-59
2022/03/06 07:24:49;;;;;;;7.40;3.25;;;17.60;55.70;;;;;;10417177;28;20033;-58
2022/03/06 07:29:50;;;;;;;14.77;4.10;;;17.70;55.90;;;;;;10414738;28;20076;-58
2022/03/06 07:34:50;;;;;;;14.38;3.63;;;17.60;56.30;;;;;;10414483;28;20118;-60
2022/03/06 07:39:51;;;;;;;14.57;4.68;;;17.60;56.70;;;;;;10415689;28;20025;-57
2022/03/06 07:44:51;;;;;;;19.77;4.55;;;17.70;56.50;;;;;;10414321;28;20065;-60
2022/03/06 07:49:52;;;;;;;11.63;3.95;;;17.70;56.60;;;;;;10413540;28;20057;-58
2022/03/06 07:54:53;;;;;;;9.48;3.30;;;17.50;56.40;;;;;;10397716;28;20029;-58
2022/03/06 07:59:54;;;;;;;12.82;3.88;;;17.50;56.70;;;;;;10397191;28;20088;-58
2022/03/06 08:04:54;;;;;;;9.60;3.47;;;17.40;56.80;;;;;;10398946;28;20049;-59
2022/03/06 08:09:55;;;;;;;5.95;3.00;;;17.40;56.80;;;;;;10413580;28;20477;-57
2022/03/06 08:14:56;;;;;;;8.68;3.45;;;17.30;56.50;;;;;;10413582;28;20053;-57
2022/03/06 08:19:56;;;;;;;10.80;3.70;;;17.40;56.50;;;;;;10413605;28;20113;-58
2022/03/06 08:24:57;;;;;;;16.73;3.45;;;17.30;56.50;;;;;;10412997;28;20026;-59
2022/03/06 08:29:59;;;;;;;8.00;2.97;;;17.20;57.30;;;;;;10414241;28;20108;-58
2022/03/06 08:34:59;;;;;;;9.13;3.28;;;17.20;56.60;;;;;;10412236;28;20042;-57
2022/03/06 08:40:00;;;;;;;5.85;2.90;;;17.30;56.30;;;;;;10414210;28;20533;-63
2022/03/06 08:45:01;;;;;;;7.75;2.65;;;17.30;56.10;;;;;;10412015;28;20048;-58
2022/03/06 08:50:02;;;;;;;7.97;3.40;;;17.30;56.10;;;;;;10404582;28;20085;-58
2022/03/06 08:55:04;;;;;;;9.25;2.75;;;17.30;56.10;;;;;;10413076;28;20046;-58
2022/03/06 09:00:07;;;;;;;8.98;2.90;;;17.20;56.10;;;;;;10392023;28;20037;-58
2022/03/06 09:05:08;;;;;;;4.82;2.70;;;17.20;56.20;;;;;;10399281;28;20055;-59
2022/03/06 09:10:09;;;;;;;4.40;2.40;;;17.20;56.30;;;;;;10412503;28;20029;-57
2022/03/06 09:15:11;;;;;;;5.40;2.97;;;17.20;56.20;;;;;;10411889;28;20472;-57
2022/03/06 09:20:12;;;;;;;4.45;2.42;;;17.20;56.20;;;;;;10410810;28;20035;-58
2022/03/06 09:25:13;;;;;;;4.53;1.95;;;17.20;56.10;;;;;;10421057;28;20104;-58
2022/03/06 09:30:14;;;;;;;5.38;1.80;;;17.10;55.90;;;;;;10410357;28;20060;-57
2022/03/06 09:35:14;;;;;;;3.45;1.85;;;17.10;55.80;;;;;;10411137;28;20045;-58
2022/03/06 09:40:15;;;;;;;4.32;2.15;;;17.20;55.50;;;;;;10394185;28;20021;-58
2022/03/06 09:45:16;;;;;;;5.55;2.03;;;17.20;55.50;;;;;;10413016;28;20025;-58
2022/03/06 09:50:17;;;;;;;7.28;2.33;;;17.30;55.50;;;;;;10431506;28;20112;-58
2022/03/06 09:55:18;;;;;;;11.30;2.42;;;17.30;55.50;;;;;;10423441;28;20038;-58
2022/03/06 10:00:18;;;;;;;6.93;2.58;;;17.40;55.60;;;;;;10417899;28;20029;-58
2022/03/06 10:05:38;;;;;;;12.23;4.35;;;17.40;55.60;;;;;;10416279;28;20421;-58
2022/03/06 10:10:38;;;;;;;11.82;2.70;;;17.40;55.60;;;;;;10419673;28;20041;-59
2022/03/06 10:16:16;;;;;;;11.93;2.72;;;17.40;55.80;;;;;;10419275;28;20034;-57
2022/03/06 10:21:32;;;;;;;15.73;4.05;;;17.50;56.10;;;;;;10409515;28;20041;-56
2022/03/06 10:26:36;;;;;;;11.70;3.92;;;17.40;56.20;;;;;;10426242;28;20025;-56
2022/03/06 10:31:53;;;;;;;12.95;3.58;;;17.40;56.20;;;;;;10415810;28;20124;-57
2022/03/06 10:36:54;;;;;;;10.57;2.50;;;17.40;56.30;;;;;;10417881;28;20383;-57
2022/03/06 10:41:56;;;;;;;11.00;3.22;;;17.40;56.30;;;;;;10417433;28;20026;-57
2022/03/06 10:47:00;;;;;;;11.20;2.70;;;17.40;56.20;;;;;;10419563;28;20044;-57
2022/03/06 10:52:18;;;;;;;7.43;2.47;;;17.40;56.90;;;;;;10413088;28;20039;-56
2022/03/06 10:57:20;;;;;;;11.48;3.03;;;17.40;56.40;;;;;;10440713;28;20502;-58
2022/03/06 11:02:24;;;;;;;9.95;2.58;;;17.40;56.10;;;;;;10431910;28;20083;-57
2022/03/06 11:07:29;;;;;;;13.70;3.70;;;17.40;56.10;;;;;;10433076;28;20029;-57
2022/03/06 11:12:32;;;;;;;7.00;2.95;;;17.40;55.90;;;;;;10408847;28;20052;-58
2022/03/06 11:17:34;;;;;;;9.55;2.70;;;17.50;55.60;;;;;;10416586;28;20528;-58
2022/03/06 11:23:00;;;;;;;8.77;2.75;;;17.50;55.60;;;;;;10410412;28;20017;-57
2022/03/06 11:28:31;;;;;;;10.80;3.25;;;17.60;55.70;;;;;;10414204;28;20041;-57
2022/03/06 11:33:31;;;;;;;7.22;2.80;;;17.50;55.60;;;;;;10416934;28;20021;-58
2022/03/06 11:38:40;;;;;;;7.60;3.10;;;17.60;56.20;;;;;;10415489;28;20080;-61
2022/03/06 11:43:49;;;;;;;6.90;2.60;;;17.60;56.50;;;;;;10415492;28;20549;-61
2022/03/06 11:48:49;;;;;;;16.23;3.53;;;17.60;56.60;;;;;;10430228;28;20043;-59
2022/03/06 11:54:15;;;;;;;8.57;2.45;;;17.60;56.70;;;;;;10413266;28;20036;-59
2022/03/06 11:59:32;;;;;;;11.70;3.10;;;17.60;56.60;;;;;;10423649;28;20032;-59
2022/03/06 12:04:34;;;;;;;8.77;2.63;;;17.60;56.50;;;;;;10398288;28;20037;-59
2022/03/06 12:09:44;;;;;;;6.65;2.47;;;17.60;56.20;;;;;;10409282;28;20060;-59
2022/03/06 12:14:55;;;;;;;10.38;2.58;;;17.60;56.10;;;;;;10414039;28;20029;-60
2022/03/06 12:19:55;;;;;;;7.10;3.55;;;17.60;56.00;;;;;;10414146;28;20021;-59
2022/03/06 12:25:11;;;;;;;7.55;2.03;;;17.60;55.70;;;;;;10414626;28;20037;-59
2022/03/06 12:30:18;;;;;;;5.45;2.15;;;17.60;55.80;;;;;;10404762;28;20048;-59
2022/03/06 12:35:26;;;;;;;6.93;2.15;;;17.50;56.00;;;;;;10531737;28;20761;-59
2022/03/06 12:40:31;;;;;;;11.40;2.35;;;17.60;55.90;;;;;;10474507;28;20028;-60
2022/03/06 12:45:34;;;;;;;6.60;1.88;;;17.60;55.70;;;;;;10488320;28;20032;-60
2022/03/06 12:50:35;;;;;;;4.57;2.13;;;17.60;55.70;;;;;;10488274;28;20036;-60
2022/03/06 12:55:35;;;;;;;7.60;2.08;;;17.60;55.70;;;;;;10473402;28;20048;-60
2022/03/06 13:00:37;;;;;;;4.57;1.90;;;17.60;55.60;;;;;;10461334;28;20039;-60
2022/03/06 13:05:38;;;;;;;3.88;1.38;;;17.60;55.40;;;;;;10477890;28;20086;-60
2022/03/06 13:10:39;;;;;;;5.28;1.95;;;17.60;55.70;;;;;;10487479;28;20419;-60
2022/03/06 13:15:40;;;;;;;6.63;2.05;;;17.60;55.60;;;;;;10488642;28;20045;-60
2022/03/06 13:20:42;;;;;;;6.75;2.30;;;17.60;55.50;;;;;;10482347;28;20029;-60
2022/03/06 13:25:44;;;;;;;2.83;2.03;;;17.60;55.40;;;;;;10486928;28;20017;-59
2022/03/06 13:30:44;;;;;;;4.93;2.05;;;17.60;55.40;;;;;;10487440;28;20068;-60
2022/03/06 13:35:45;;;;;;;4.28;2.10;;;17.60;55.40;;;;;;10486493;28;20056;-60
2022/03/06 13:40:53;;;;;;;4.68;1.48;;;17.60;55.40;;;;;;10486251;28;20051;-60
2022/03/06 13:45:55;;;;;;;4.25;2.33;;;17.60;55.30;;;;;;10463073;28;20029;-59
2022/03/06 13:50:57;;;;;;;3.28;1.65;;;17.60;55.30;;;;;;10458561;28;20033;-59
2022/03/06 13:56:02;;;;;;;3.70;1.90;;;17.60;55.30;;;;;;10466078;28;20021;-60
2022/03/06 14:01:04;;;;;;;2.35;1.88;;;17.60;55.30;;;;;;10441988;28;20029;-59
2022/03/06 14:06:07;;;;;;;10.02;1.63;;;17.60;55.30;;;;;;10450018;28;20029;-61
2022/03/06 14:11:22;;;;;;;6.97;2.63;;;17.60;55.60;;;;;;10455878;28;20102;-58
2022/03/06 14:16:30;;;;;;;8.95;1.85;;;17.60;55.40;;;;;;10455992;28;20489;-58
2022/03/06 14:21:42;;;;;;;12.60;2.25;;;17.60;56.40;;;;;;10456219;28;20032;-59
2022/03/06 14:26:50;;;;;;;8.63;3.10;;;17.70;56.10;;;;;;10444458;28;20171;-57
2022/03/06 14:31:59;;;;;;;7.03;1.90;;;17.70;56.20;;;;;;10449273;28;20049;-58
2022/03/06 14:37:02;;;;;;;;;;;17.70;56.40;;;;;;10457043;28;20029;-58
2022/03/06 14:42:03;;;;;;;6.50;2.45;;;17.70;56.70;;;;;;10440136;28;20417;-58
2022/03/06 14:47:04;;;;;;;6.18;1.88;;;17.70;56.70;;;;;;10452251;28;20029;-60
2022/03/06 14:52:05;;;;;;;10.02;2.70;;;17.70;56.90;;;;;;10454619;28;20041;-58
2022/03/06 14:57:06;;;;;;;8.57;1.98;;;17.70;57.90;;;;;;10464947;28;20436;-59
2022/03/06 15:02:07;;;;;;;7.65;2.42;;;17.70;57.80;;;;;;10471891;28;20072;-59
2022/03/06 15:07:07;;;;;;;9.07;2.45;;;17.70;57.90;;;;;;10443385;28;20492;-58
2022/03/06 15:12:09;;;;;;;9.63;2.25;;;17.70;57.60;;;;;;10455235;28;20575;-58
2022/03/06 15:17:09;;;;;;;12.70;2.85;;;17.60;57.70;;;;;;10453932;28;20512;-59
2022/03/06 15:22:11;;;;;;;16.38;2.80;;;17.70;57.20;;;;;;10451304;28;20104;-59
2022/03/06 15:27:12;;;;;;;12.65;2.50;;;17.60;57.60;;;;;;10455852;28;20093;-59
2022/03/06 15:32:13;;;;;;;14.82;3.42;;;17.60;58.00;;;;;;10450835;28;20053;-59
2022/03/06 15:37:15;;;;;;;11.52;2.75;;;17.60;57.90;;;;;;10455571;28;20060;-58
2022/03/06 15:42:16;;;;;;;8.85;2.40;;;17.50;58.30;;;;;;10454930;28;20111;-58
2022/03/06 15:47:17;;;;;;;8.95;3.17;;;17.50;58.20;;;;;;10453779;28;20037;-58
2022/03/06 15:52:17;;;;;;;12.32;4.00;;;17.50;58.40;;;;;;10427401;28;20044;-57
2022/03/06 15:57:18;;;;;;;16.75;3.00;;;17.50;58.80;;;;;;10462748;28;20032;-58
2022/03/06 16:02:21;;;;;;;16.55;3.30;;;17.50;59.00;;;;;;10453524;28;20401;-58
2022/03/06 16:07:21;;;;;;;19.52;3.17;;;17.40;59.20;;;;;;10453381;28;20116;-57
2022/03/06 16:12:22;;;;;;;16.90;2.88;;;17.40;59.60;;;;;;10454419;28;20115;-56
2022/03/06 16:17:23;;;;;;;14.57;3.28;;;17.40;59.60;;;;;;10454360;28;20041;-57
2022/03/06 16:22:23;;;;;;;11.52;2.83;;;17.30;59.00;;;;;;10452216;28;20543;-57
2022/03/06 16:27:24;;;;;;;18.92;2.72;;;17.20;59.00;;;;;;10452482;28;20108;-57
2022/03/06 16:32:25;;;;;;;22.95;4.18;;;17.10;59.30;;;;;;10436289;28;20042;-58
2022/03/06 16:37:25;;;;;;;14.40;3.30;;;17.00;59.20;;;;;;10451652;28;20103;-56
2022/03/06 16:42:26;;;;;;;10.13;2.65;;;17.00;59.40;;;;;;10452469;28;20039;-59
2022/03/06 16:47:27;;;;;;;7.90;2.30;;;17.00;59.40;;;;;;10453743;28;20170;-57
2022/03/06 16:52:28;;;;;;;27.27;14.38;;;16.90;58.50;;;;;;10424455;28;20151;-57
2022/03/06 16:57:28;;;;;;;14.77;7.55;;;17.00;61.20;;;;;;10455993;28;20112;-57
2022/03/06 17:02:29;;;;;;;15.15;4.32;;;17.30;61.10;;;;;;10441867;28;20052;-58
2022/03/06 17:07:31;;;;;;;22.95;6.90;;;17.20;58.40;;;;;;10452211;28;20032;-59
2022/03/06 17:12:32;;;;;;;19.95;5.85;;;17.10;64.30;;;;;;10449139;28;20025;-57
2022/03/06 17:17:33;;;;;;;12.85;4.22;;;17.40;63.70;;;;;;10443219;28;20040;-56
2022/03/06 17:22:34;;;;;;;12.52;3.72;;;17.50;63.30;;;;;;10461172;28;20032;-57
2022/03/06 17:27:35;;;;;;;9.27;3.40;;;17.50;62.50;;;;;;10459314;28;20037;-57
2022/03/06 17:32:35;;;;;;;13.27;3.63;;;17.40;62.80;;;;;;10456948;28;20041;-57
2022/03/06 17:37:38;;;;;;;17.20;3.50;;;17.20;61.90;;;;;;10459332;28;20033;-57
2022/03/06 17:42:39;;;;;;;9.05;2.92;;;17.20;61.70;;;;;;10458012;28;20029;-57
2022/03/06 17:47:40;;;;;;;13.18;3.58;;;17.20;61.90;;;;;;10449045;28;20068;-58
2022/03/06 17:52:40;;;;;;;11.32;2.83;;;17.20;61.90;;;;;;10459164;28;20432;-57
2022/03/06 17:57:41;;;;;;;15.93;4.28;;;17.20;62.00;;;;;;10457582;28;20054;-58
2022/03/06 18:02:42;;;;;;;14.82;3.65;;;17.20;61.80;;;;;;10458543;28;20029;-58
2022/03/06 18:07:43;;;;;;;14.43;3.10;;;17.20;61.70;;;;;;10458365;28;20124;-57
2022/03/06 18:12:43;;;;;;;12.15;3.28;;;17.10;61.30;;;;;;10454326;28;20120;-56
2022/03/06 18:17:44;;;;;;;14.02;2.83;;;17.10;61.10;;;;;;10455532;28;20112;-56
2022/03/06 18:22:46;;;;;;;13.20;3.13;;;17.00;61.10;;;;;;10449931;28;20087;-56
2022/03/06 18:27:47;;;;;;;9.10;3.08;;;16.90;61.00;;;;;;10458228;28;20087;-57
2022/03/06 18:32:48;;;;;;;15.25;2.70;;;17.00;60.40;;;;;;10454633;28;20076;-58
2022/03/06 18:37:50;;;;;;;10.68;2.13;;;17.00;60.40;;;;;;10457387;28;20021;-58
2022/03/06 18:42:51;;;;;;;9.60;2.15;;;17.00;60.60;;;;;;10456738;28;20056;-57
2022/03/06 18:47:52;;;;;;;8.77;2.28;;;17.20;59.60;;;;;;10450673;28;20460;-56
2022/03/06 18:52:53;;;;;;;8.10;2.03;;;17.30;59.30;;;;;;10447389;28;20148;-56
2022/03/06 18:57:53;;;;;;;13.05;2.17;;;17.40;59.10;;;;;;10441042;28;20029;-56
2022/03/06 19:02:55;;;;;;;10.38;2.20;;;17.30;59.30;;;;;;10440659;28;20131;-56
2022/03/06 19:07:56;;;;;;;9.32;2.20;;;17.20;60.30;;;;;;10434790;28;20029;-56
2022/03/06 19:12:57;;;;;;;18.60;2.80;;;17.20;60.40;;;;;;10453532;28;20041;-56
2022/03/06 19:17:57;;;;;;;10.43;2.80;;;17.10;60.40;;;;;;10433221;28;20037;-57
2022/03/06 19:22:58;;;;;;;11.77;2.53;;;17.30;59.50;;;;;;10456357;28;20385;-56
2022/03/06 19:27:59;;;;;;;9.13;2.72;;;17.40;59.30;;;;;;10470708;28;20111;-56
2022/03/06 19:33:00;;;;;;;9.13;2.38;;;17.30;59.60;;;;;;10454551;28;20048;-56
2022/03/06 19:38:01;;;;;;;9.13;2.70;;;17.30;60.40;;;;;;10444891;28;20021;-56
2022/03/06 19:43:02;;;;;;;7.38;2.33;;;17.20;60.50;;;;;;10447287;28;20051;-57
2022/03/06 19:48:04;;;;;;;6.85;2.13;;;17.20;60.60;;;;;;10434470;28;20044;-56
2022/03/06 19:53:05;;;;;;;7.28;2.05;;;17.30;60.70;;;;;;10421185;28;20051;-56
2022/03/06 19:58:05;;;;;;;8.38;3.03;;;17.30;60.50;;;;;;10441134;28;20036;-56
2022/03/06 20:03:06;;;;;;;11.40;3.42;;;17.30;60.80;;;;;;10434148;28;20104;-57
2022/03/06 20:08:07;;;;;;;8.77;2.22;;;17.30;60.10;;;;;;10424016;28;20030;-57
2022/03/06 20:13:08;;;;;;;4.47;2.22;;;17.30;59.80;;;;;;10434789;28;20091;-56
2022/03/06 20:18:09;;;;;;;9.52;1.75;;;17.30;60.00;;;;;;10450901;28;20025;-57
2022/03/06 20:23:09;;;;;;;7.70;2.90;;;17.20;60.40;;;;;;10446533;28;20400;-56
2022/03/06 20:28:10;;;;;;;10.82;1.73;;;17.20;60.40;;;;;;10434466;28;20113;-56
2022/03/06 20:33:11;;;;;;;7.80;2.55;;;17.20;60.40;;;;;;10423580;28;20111;-57
2022/03/06 20:38:12;;;;;;;8.32;1.58;;;17.20;60.50;;;;;;10443128;28;20104;-58
2022/03/06 20:43:13;;;;;;;8.25;2.10;;;17.20;60.70;;;;;;10438682;28;20170;-56
2022/03/06 20:48:14;;;;;;;5.25;2.33;;;17.20;59.20;;;;;;10447327;28;20104;-57
2022/03/06 20:53:15;;;;;;;8.48;2.28;;;17.30;58.70;;;;;;10437052;28;20037;-56
2022/03/06 20:58:19;;;;;;;3.30;1.40;;;17.30;58.30;;;;;;10467586;28;20032;-56
2022/03/06 21:03:20;;;;;;;6.45;1.27;;;17.40;57.90;;;;;;10449019;28;20465;-57
2022/03/06 21:08:21;;;;;;;7.43;1.40;;;17.40;57.70;;;;;;10441122;28;20103;-56
2022/03/06 21:13:22;;;;;;;3.10;1.30;;;17.40;57.20;;;;;;10446302;28;20062;-57
2022/03/06 21:18:23;;;;;;;3.60;1.77;;;17.40;57.10;;;;;;10451942;28;20039;-56
2022/03/06 21:23:24;;;;;;;3.40;1.48;;;17.40;56.80;;;;;;10459957;28;20033;-56
2022/03/06 21:28:25;;;;;;;4.95;1.08;;;17.40;56.60;;;;;;10460590;28;20632;-57
2022/03/06 21:33:26;;;;;;;3.03;1.30;;;17.40;56.50;;;;;;10459416;28;20040;-56
2022/03/06 21:38:27;;;;;;;4.88;1.15;;;17.40;56.40;;;;;;10459203;28;20033;-56
2022/03/06 21:43:27;;;;;;;3.10;1.40;;;17.40;55.90;;;;;;10460498;28;20033;-56
2022/03/06 21:48:28;;;;;;;5.70;1.27;;;17.50;55.60;;;;;;10455623;28;20060;-57
2022/03/06 21:53:29;;;;;;;3.95;1.23;;;17.50;55.60;;;;;;10456568;28;20057;-56
2022/03/06 21:58:29;;;;;;;5.82;1.40;;;17.60;55.10;;;;;;10468332;28;20536;-57
2022/03/06 22:03:30;;;;;;;7.07;1.42;;;17.70;54.80;;;;;;10448242;28;20146;-57
2022/03/06 22:08:31;;;;;;;3.58;1.48;;;17.60;54.80;;;;;;10459269;28;20108;-57
2022/03/06 22:13:32;;;;;;;2.55;1.05;;;17.70;54.60;;;;;;10459297;28;20521;-57
2022/03/06 22:18:32;;;;;;;4.53;1.45;;;17.70;54.40;;;;;;10447874;28;20111;-57
2022/03/06 22:23:33;;;;;;;2.13;1.08;;;17.70;54.40;;;;;;10449825;28;20028;-57
2022/03/06 22:28:34;;;;;;;2.30;1.02;;;17.70;54.20;;;;;;10451914;28;20360;-56
2022/03/06 22:33:35;;;;;;;4.05;1.15;;;17.70;54.10;;;;;;10458374;28;20049;-56
2022/03/06 22:38:36;;;;;;;3.13;0.90;;;17.70;54.00;;;;;;10456831;28;20493;-57
2022/03/06 22:43:37;;;;;;;5.57;1.52;;;17.70;53.90;;;;;;10453776;28;20045;-57
2022/03/06 22:48:38;;;;;;;2.38;0.82;;;17.80;53.70;;;;;;10455162;28;20029;-57
2022/03/06 22:53:39;;;;;;;3.25;1.10;;;17.70;53.60;;;;;;10455780;28;20033;-57
2022/03/06 22:58:39;;;;;;;1.75;1.00;;;17.80;53.50;;;;;;10465782;28;20377;-57
2022/03/06 23:03:40;;;;;;;1.85;0.80;;;17.80;53.30;;;;;;10454934;28;20043;-57
2022/03/06 23:08:41;;;;;;;4.05;1.42;;;17.90;53.10;;;;;;10455967;28;20565;-56
2022/03/06 23:13:41;;;;;;;2.13;0.80;;;17.90;52.80;;;;;;10456981;28;20707;-56
2022/03/06 23:18:42;;;;;;;4.40;1.20;;;17.90;52.70;;;;;;10456030;28;20526;-57
2022/03/06 23:23:43;;;;;;;4.55;1.40;;;17.80;52.80;;;;;;10455353;28;20063;-57
2022/03/06 23:28:44;;;;;;;3.45;0.80;;;17.90;52.80;;;;;;10456650;28;20037;-56
2022/03/06 23:33:45;;;;;;;1.50;1.17;;;17.80;52.70;;;;;;10450475;28;20408;-56
2022/03/06 23:38:46;;;;;;;2.28;0.70;;;17.80;52.60;;;;;;10455041;28;20020;-57
2022/03/06 23:43:46;;;;;;;2.05;0.90;;;17.90;52.50;;;;;;10452648;28;20393;-57
2022/03/06 23:48:47;;;;;;;1.45;0.77;;;17.90;52.40;;;;;;10453949;28;20040;-57
2022/03/06 23:53:48;;;;;;;1.35;0.70;;;17.90;52.30;;;;;;10455349;28;20090;-57
2022/03/06 23:58:49;;;;;;;1.67;0.90;;;18.00;52.20;;;;;;10450599;28;20033;-56
